This is the latest recevied weather packets stored in our database for station/object OK1FRN-6. If no packets are shown the sender has not sent any weather packets the latest 10 day(s).
| Time | Temp. | Humidity | Pressure | Rain* | Wind** | Luminosity | Snow |
|---|---|---|---|---|---|---|---|
| 1777884185 | 23.33° C | 40% | 1015 hPa | - | - | - | - |
| 1777883265 | 22.78° C | 39% | 1015 hPa | - | - | - | - |
| 1777882957 | 23.33° C | 38% | 1015 hPa | - | - | - | - |
| 1777882343 | 24.44° C | 38% | 1014.8 hPa | - | - | - | - |
| 1777882037 | 24.44° C | 38% | 1014.8 hPa | - | - | - | - |
| 1777881422 | 23.89° C | 39% | 1014.8 hPa | - | - | - | - |
| 1777880808 | 22.78° C | 41% | 1014.9 hPa | - | - | - | - |
| 1777880195 | 22.78° C | 41% | 1015 hPa | - | - | - | - |
| 1777878354 | 19.44° C | 48% | 1015 hPa | - | - | - | - |
| 1777877741 | 18.33° C | 50% | 1014.9 hPa | - | - | - | - |
| 1777877434 | 17.78° C | 51% | 1014.8 hPa | - | - | - | - |
| 1777877128 | 17.78° C | 52% | 1014.8 hPa | - | - | - | - |
| 1777876821 | 17.22° C | 54% | 1014.8 hPa | - | - | - | - |
| 1777876515 | 16.67° C | 56% | 1014.7 hPa | - | - | - | - |
| 1777875902 | 15° C | 60% | 1014.6 hPa | - | - | - | - |
| 1777874984 | 12.78° C | 67% | 1014.7 hPa | - | - | - | - |
| 1777874678 | 12.22° C | 68% | 1014.7 hPa | - | - | - | - |
| 1777874372 | 11.67° C | 69% | 1014.8 hPa | - | - | - | - |
| 1777874066 | 11.11° C | 69% | 1014.8 hPa | - | - | - | - |
| 1777873760 | 10.56° C | 69% | 1014.8 hPa | - | - | - | - |
| 1777873148 | 10.56° C | 69% | 1014.7 hPa | - | - | - | - |
| 1777872842 | 10° C | 70% | 1014.6 hPa | - | - | - | - |
| 1777872537 | 10° C | 70% | 1014.5 hPa | - | - | - | - |
| 1777872231 | 9.44° C | 70% | 1014.4 hPa | - | - | - | - |
| 1777871620 | 8.89° C | 70% | 1014.4 hPa | - | - | - | - |
* Rain since midnight (hover to see other rain measurements)
** Current wind speed in m/s (hover to see current wind gust speed)